sensor_id;sensor_type;location;lat;lon;timestamp;P1;durP1;ratioP1;P2;durP2;ratioP2
8254;SDS011;4167;48.162;11.542;2023-05-07T00:02:11;249.90;;;73.00;;
8254;SDS011;4167;48.162;11.542;2023-05-07T00:04:39;219.20;;;70.07;;
8254;SDS011;4167;48.162;11.542;2023-05-07T00:07:05;209.77;;;70.03;;
8254;SDS011;4167;48.162;11.542;2023-05-07T00:09:31;235.93;;;71.07;;
8254;SDS011;4167;48.162;11.542;2023-05-07T00:11:58;252.67;;;72.77;;
8254;SDS011;4167;48.162;11.542;2023-05-07T00:14:24;235.17;;;72.77;;
8254;SDS011;4167;48.162;11.542;2023-05-07T00:16:51;272.20;;;74.37;;
8254;SDS011;4167;48.162;11.542;2023-05-07T00:19:17;223.43;;;72.23;;
8254;SDS011;4167;48.162;11.542;2023-05-07T00:21:45;237.83;;;73.47;;
8254;SDS011;4167;48.162;11.542;2023-05-07T00:24:11;256.30;;;75.87;;
8254;SDS011;4167;48.162;11.542;2023-05-07T00:26:38;231.60;;;73.90;;
8254;SDS011;4167;48.162;11.542;2023-05-07T00:29:04;229.40;;;73.20;;
8254;SDS011;4167;48.162;11.542;2023-05-07T00:31:31;217.20;;;70.13;;
8254;SDS011;4167;48.162;11.542;2023-05-07T00:33:57;298.47;;;77.17;;
8254;SDS011;4167;48.162;11.542;2023-05-07T00:36:24;308.53;;;78.77;;
8254;SDS011;4167;48.162;11.542;2023-05-07T00:38:53;277.63;;;74.47;;
8254;SDS011;4167;48.162;11.542;2023-05-07T00:41:20;216.43;;;70.00;;
8254;SDS011;4167;48.162;11.542;2023-05-07T00:43:47;201.80;;;71.73;;
8254;SDS011;4167;48.162;11.542;2023-05-07T00:46:16;243.10;;;75.50;;
8254;SDS011;4167;48.162;11.542;2023-05-07T00:48:43;223.87;;;73.50;;
8254;SDS011;4167;48.162;11.542;2023-05-07T00:51:09;207.30;;;71.33;;
8254;SDS011;4167;48.162;11.542;2023-05-07T00:53:36;184.77;;;70.00;;
8254;SDS011;4167;48.162;11.542;2023-05-07T00:56:04;292.50;;;78.37;;
8254;SDS011;4167;48.162;11.542;2023-05-07T00:58:31;248.07;;;75.77;;
8254;SDS011;4167;48.162;11.542;2023-05-07T01:00:58;293.37;;;76.67;;
8254;SDS011;4167;48.162;11.542;2023-05-07T01:03:25;257.87;;;75.87;;
8254;SDS011;4167;48.162;11.542;2023-05-07T01:05:51;300.80;;;77.53;;
8254;SDS011;4167;48.162;11.542;2023-05-07T01:08:18;311.97;;;81.00;;
8254;SDS011;4167;48.162;11.542;2023-05-07T01:10:44;235.53;;;73.37;;
8254;SDS011;4167;48.162;11.542;2023-05-07T01:13:13;224.90;;;72.10;;
8254;SDS011;4167;48.162;11.542;2023-05-07T01:15:40;309.40;;;80.97;;
8254;SDS011;4167;48.162;11.542;2023-05-07T01:18:07;322.23;;;81.27;;
8254;SDS011;4167;48.162;11.542;2023-05-07T01:20:33;255.57;;;77.43;;
8254;SDS011;4167;48.162;11.542;2023-05-07T01:23:01;226.27;;;73.43;;
8254;SDS011;4167;48.162;11.542;2023-05-07T01:25:29;221.70;;;72.23;;
8254;SDS011;4167;48.162;11.542;2023-05-07T01:27:56;253.77;;;75.50;;
8254;SDS011;4167;48.162;11.542;2023-05-07T01:30:24;236.00;;;74.27;;
8254;SDS011;4167;48.162;11.542;2023-05-07T01:32:51;243.37;;;74.20;;
8254;SDS011;4167;48.162;11.542;2023-05-07T01:35:20;261.03;;;79.27;;
8254;SDS011;4167;48.162;11.542;2023-05-07T01:37:48;240.60;;;75.13;;
8254;SDS011;4167;48.162;11.542;2023-05-07T01:40:17;253.00;;;78.13;;
8254;SDS011;4167;48.162;11.542;2023-05-07T01:42:43;272.60;;;77.57;;
8254;SDS011;4167;48.162;11.542;2023-05-07T01:45:10;215.30;;;73.00;;
8254;SDS011;4167;48.162;11.542;2023-05-07T01:47:37;252.90;;;76.80;;
8254;SDS011;4167;48.162;11.542;2023-05-07T01:50:04;276.80;;;77.57;;
8254;SDS011;4167;48.162;11.542;2023-05-07T01:52:34;218.10;;;73.33;;
8254;SDS011;4167;48.162;11.542;2023-05-07T01:55:00;254.30;;;74.70;;
8254;SDS011;4167;48.162;11.542;2023-05-07T01:57:29;367.97;;;84.43;;
8254;SDS011;4167;48.162;11.542;2023-05-07T01:59:55;297.73;;;79.47;;
8254;SDS011;4167;48.162;11.542;2023-05-07T02:02:22;314.03;;;81.40;;
8254;SDS011;4167;48.162;11.542;2023-05-07T02:04:48;287.17;;;79.50;;
8254;SDS011;4167;48.162;11.542;2023-05-07T02:07:14;231.97;;;75.10;;
8254;SDS011;4167;48.162;11.542;2023-05-07T02:09:41;211.00;;;72.10;;
8254;SDS011;4167;48.162;11.542;2023-05-07T02:12:07;253.03;;;75.70;;
8254;SDS011;4167;48.162;11.542;2023-05-07T02:14:35;258.47;;;77.83;;
8254;SDS011;4167;48.162;11.542;2023-05-07T02:17:02;316.87;;;81.63;;
8254;SDS011;4167;48.162;11.542;2023-05-07T02:19:28;231.70;;;74.70;;
8254;SDS011;4167;48.162;11.542;2023-05-07T02:21:54;243.70;;;75.13;;
8254;SDS011;4167;48.162;11.542;2023-05-07T02:24:21;233.07;;;75.07;;
8254;SDS011;4167;48.162;11.542;2023-05-07T02:26:47;253.63;;;77.47;;
8254;SDS011;4167;48.162;11.542;2023-05-07T02:29:14;238.77;;;76.53;;
8254;SDS011;4167;48.162;11.542;2023-05-07T02:31:41;268.27;;;78.10;;
8254;SDS011;4167;48.162;11.542;2023-05-07T02:34:08;225.13;;;73.87;;
8254;SDS011;4167;48.162;11.542;2023-05-07T02:36:34;365.53;;;85.23;;
8254;SDS011;4167;48.162;11.542;2023-05-07T02:39:01;351.63;;;82.60;;
8254;SDS011;4167;48.162;11.542;2023-05-07T02:41:28;221.67;;;71.73;;
8254;SDS011;4167;48.162;11.542;2023-05-07T02:43:54;303.20;;;79.87;;
8254;SDS011;4167;48.162;11.542;2023-05-07T02:46:21;229.10;;;74.40;;
8254;SDS011;4167;48.162;11.542;2023-05-07T02:48:48;274.77;;;78.17;;
8254;SDS011;4167;48.162;11.542;2023-05-07T02:51:16;244.10;;;77.40;;
8254;SDS011;4167;48.162;11.542;2023-05-07T02:53:43;188.87;;;70.70;;
8254;SDS011;4167;48.162;11.542;2023-05-07T02:56:09;220.77;;;74.33;;
8254;SDS011;4167;48.162;11.542;2023-05-07T02:58:36;234.53;;;74.40;;
8254;SDS011;4167;48.162;11.542;2023-05-07T03:01:04;279.20;;;77.63;;
8254;SDS011;4167;48.162;11.542;2023-05-07T03:03:30;226.80;;;75.27;;
8254;SDS011;4167;48.162;11.542;2023-05-07T03:05:58;247.97;;;73.90;;
8254;SDS011;4167;48.162;11.542;2023-05-07T03:08:24;277.77;;;81.27;;
8254;SDS011;4167;48.162;11.542;2023-05-07T03:10:51;238.53;;;75.57;;
8254;SDS011;4167;48.162;11.542;2023-05-07T03:13:17;283.80;;;79.57;;
8254;SDS011;4167;48.162;11.542;2023-05-07T03:15:44;246.57;;;75.80;;
8254;SDS011;4167;48.162;11.542;2023-05-07T03:18:10;243.13;;;76.43;;
8254;SDS011;4167;48.162;11.542;2023-05-07T03:20:37;288.20;;;80.53;;
8254;SDS011;4167;48.162;11.542;2023-05-07T03:23:05;316.27;;;83.17;;
8254;SDS011;4167;48.162;11.542;2023-05-07T03:25:31;283.43;;;79.83;;
8254;SDS011;4167;48.162;11.542;2023-05-07T03:27:58;235.53;;;75.13;;
8254;SDS011;4167;48.162;11.542;2023-05-07T03:30:24;265.87;;;78.20;;
8254;SDS011;4167;48.162;11.542;2023-05-07T03:32:51;303.00;;;82.60;;
8254;SDS011;4167;48.162;11.542;2023-05-07T03:35:17;284.10;;;82.77;;
8254;SDS011;4167;48.162;11.542;2023-05-07T03:37:44;283.50;;;82.20;;
8254;SDS011;4167;48.162;11.542;2023-05-07T03:40:12;276.77;;;82.80;;
8254;SDS011;4167;48.162;11.542;2023-05-07T03:42:38;219.77;;;76.83;;
8254;SDS011;4167;48.162;11.542;2023-05-07T03:45:05;345.13;;;89.80;;
8254;SDS011;4167;48.162;11.542;2023-05-07T03:47:33;221.57;;;75.20;;
8254;SDS011;4167;48.162;11.542;2023-05-07T03:49:59;285.83;;;80.93;;
8254;SDS011;4167;48.162;11.542;2023-05-07T03:52:26;225.70;;;76.27;;
8254;SDS011;4167;48.162;11.542;2023-05-07T03:54:52;273.60;;;82.80;;
8254;SDS011;4167;48.162;11.542;2023-05-07T03:57:20;294.47;;;84.57;;
8254;SDS011;4167;48.162;11.542;2023-05-07T03:59:47;263.67;;;81.20;;
8254;SDS011;4167;48.162;11.542;2023-05-07T04:02:13;307.57;;;83.47;;
8254;SDS011;4167;48.162;11.542;2023-05-07T04:04:40;191.03;;;74.70;;
8254;SDS011;4167;48.162;11.542;2023-05-07T04:07:06;287.57;;;81.77;;
8254;SDS011;4167;48.162;11.542;2023-05-07T04:09:32;209.93;;;75.77;;
8254;SDS011;4167;48.162;11.542;2023-05-07T04:11:59;282.33;;;81.50;;
8254;SDS011;4167;48.162;11.542;2023-05-07T04:14:27;236.80;;;81.20;;
8254;SDS011;4167;48.162;11.542;2023-05-07T04:16:55;230.00;;;79.07;;
8254;SDS011;4167;48.162;11.542;2023-05-07T04:19:21;234.37;;;76.03;;
8254;SDS011;4167;48.162;11.542;2023-05-07T04:21:48;223.70;;;76.47;;
8254;SDS011;4167;48.162;11.542;2023-05-07T04:24:14;257.63;;;82.50;;
8254;SDS011;4167;48.162;11.542;2023-05-07T04:26:41;241.57;;;77.13;;
8254;SDS011;4167;48.162;11.542;2023-05-07T04:29:07;268.40;;;80.00;;
8254;SDS011;4167;48.162;11.542;2023-05-07T04:31:35;246.23;;;79.47;;
8254;SDS011;4167;48.162;11.542;2023-05-07T04:34:01;275.43;;;81.03;;
8254;SDS011;4167;48.162;11.542;2023-05-07T04:36:28;248.87;;;80.50;;
8254;SDS011;4167;48.162;11.542;2023-05-07T04:38:54;259.20;;;79.00;;
8254;SDS011;4167;48.162;11.542;2023-05-07T04:41:21;233.87;;;75.60;;
8254;SDS011;4167;48.162;11.542;2023-05-07T04:43:47;335.50;;;82.43;;
8254;SDS011;4167;48.162;11.542;2023-05-07T04:46:14;276.03;;;75.60;;
8254;SDS011;4167;48.162;11.542;2023-05-07T04:48:41;219.47;;;70.57;;
8254;SDS011;4167;48.162;11.542;2023-05-07T04:51:08;235.43;;;71.20;;
8254;SDS011;4167;48.162;11.542;2023-05-07T04:53:34;212.33;;;69.40;;
8254;SDS011;4167;48.162;11.542;2023-05-07T04:56:01;271.10;;;71.33;;
8254;SDS011;4167;48.162;11.542;2023-05-07T04:58:27;285.13;;;75.70;;
8254;SDS011;4167;48.162;11.542;2023-05-07T05:00:56;270.43;;;73.93;;
8254;SDS011;4167;48.162;11.542;2023-05-07T05:03:22;298.07;;;75.43;;
8254;SDS011;4167;48.162;11.542;2023-05-07T05:05:50;259.80;;;73.37;;
8254;SDS011;4167;48.162;11.542;2023-05-07T05:08:17;301.33;;;76.80;;
8254;SDS011;4167;48.162;11.542;2023-05-07T05:10:44;339.07;;;81.03;;
8254;SDS011;4167;48.162;11.542;2023-05-07T05:13:10;317.20;;;77.73;;
8254;SDS011;4167;48.162;11.542;2023-05-07T05:15:37;292.17;;;77.53;;
8254;SDS011;4167;48.162;11.542;2023-05-07T05:18:04;357.40;;;81.10;;
8254;SDS011;4167;48.162;11.542;2023-05-07T05:20:30;240.57;;;73.50;;
8254;SDS011;4167;48.162;11.542;2023-05-07T05:22:58;288.87;;;75.13;;
8254;SDS011;4167;48.162;11.542;2023-05-07T05:25:25;267.57;;;74.07;;
8254;SDS011;4167;48.162;11.542;2023-05-07T05:27:51;302.20;;;76.23;;
8254;SDS011;4167;48.162;11.542;2023-05-07T05:30:17;278.37;;;76.20;;
8254;SDS011;4167;48.162;11.542;2023-05-07T05:32:44;273.23;;;73.37;;
8254;SDS011;4167;48.162;11.542;2023-05-07T05:35:10;274.17;;;74.27;;
8254;SDS011;4167;48.162;11.542;2023-05-07T05:37:37;249.50;;;72.17;;
8254;SDS011;4167;48.162;11.542;2023-05-07T05:40:05;411.13;;;84.90;;
8254;SDS011;4167;48.162;11.542;2023-05-07T05:42:32;308.17;;;77.17;;
8254;SDS011;4167;48.162;11.542;2023-05-07T05:44:59;325.57;;;75.77;;
8254;SDS011;4167;48.162;11.542;2023-05-07T05:47:25;245.43;;;71.77;;
8254;SDS011;4167;48.162;11.542;2023-05-07T05:49:52;313.00;;;74.75;;
8254;SDS011;4167;48.162;11.542;2023-05-07T05:52:18;254.45;;;73.00;;
8254;SDS011;4167;48.162;11.542;2023-05-07T05:54:44;210.90;;;70.10;;
8254;SDS011;4167;48.162;11.542;2023-05-07T05:57:12;276.77;;;74.13;;
8254;SDS011;4167;48.162;11.542;2023-05-07T05:59:39;205.23;;;71.22;;
8254;SDS011;4167;48.162;11.542;2023-05-07T06:02:05;259.33;;;75.22;;
8254;SDS011;4167;48.162;11.542;2023-05-07T06:04:32;326.55;;;78.22;;
8254;SDS011;4167;48.162;11.542;2023-05-07T06:06:58;330.17;;;80.70;;
8254;SDS011;4167;48.162;11.542;2023-05-07T06:09:25;315.92;;;81.43;;
8254;SDS011;4167;48.162;11.542;2023-05-07T06:11:51;285.60;;;78.03;;
8254;SDS011;4167;48.162;11.542;2023-05-07T06:14:19;295.10;;;79.35;;
8254;SDS011;4167;48.162;11.542;2023-05-07T06:16:45;260.85;;;77.75;;
8254;SDS011;4167;48.162;11.542;2023-05-07T06:19:12;451.02;;;89.07;;
8254;SDS011;4167;48.162;11.542;2023-05-07T06:21:38;303.10;;;82.40;;
8254;SDS011;4167;48.162;11.542;2023-05-07T06:24:05;373.20;;;85.88;;
8254;SDS011;4167;48.162;11.542;2023-05-07T06:26:32;264.77;;;77.95;;
8254;SDS011;4167;48.162;11.542;2023-05-07T06:28:58;306.85;;;81.25;;
8254;SDS011;4167;48.162;11.542;2023-05-07T06:31:29;297.27;;;81.63;;
8254;SDS011;4167;48.162;11.542;2023-05-07T06:33:57;244.40;;;77.68;;
8254;SDS011;4167;48.162;11.542;2023-05-07T06:36:23;343.52;;;83.82;;
8254;SDS011;4167;48.162;11.542;2023-05-07T06:38:51;379.40;;;85.13;;
8254;SDS011;4167;48.162;11.542;2023-05-07T06:41:17;267.23;;;78.65;;
8254;SDS011;4167;48.162;11.542;2023-05-07T06:43:45;284.13;;;79.45;;
8254;SDS011;4167;48.162;11.542;2023-05-07T06:46:11;301.75;;;80.38;;
8254;SDS011;4167;48.162;11.542;2023-05-07T06:48:39;444.98;;;90.53;;
8254;SDS011;4167;48.162;11.542;2023-05-07T06:51:06;364.80;;;85.80;;
8254;SDS011;4167;48.162;11.542;2023-05-07T06:53:32;415.30;;;89.47;;
8254;SDS011;4167;48.162;11.542;2023-05-07T06:55:59;408.40;;;88.05;;
8254;SDS011;4167;48.162;11.542;2023-05-07T06:58:26;372.98;;;86.57;;
8254;SDS011;4167;48.162;11.542;2023-05-07T07:00:52;340.13;;;83.45;;
8254;SDS011;4167;48.162;11.542;2023-05-07T07:03:19;342.85;;;83.38;;
8254;SDS011;4167;48.162;11.542;2023-05-07T07:05:47;236.88;;;77.55;;
8254;SDS011;4167;48.162;11.542;2023-05-07T07:08:13;354.40;;;82.93;;
8254;SDS011;4167;48.162;11.542;2023-05-07T07:10:42;330.50;;;83.50;;
8254;SDS011;4167;48.162;11.542;2023-05-07T07:13:08;334.95;;;82.55;;
8254;SDS011;4167;48.162;11.542;2023-05-07T07:15:35;330.58;;;83.03;;
8254;SDS011;4167;48.162;11.542;2023-05-07T07:18:01;318.08;;;80.95;;
8254;SDS011;4167;48.162;11.542;2023-05-07T07:20:27;266.30;;;78.53;;
8254;SDS011;4167;48.162;11.542;2023-05-07T07:22:55;310.00;;;81.20;;
8254;SDS011;4167;48.162;11.542;2023-05-07T07:25:22;294.00;;;79.55;;
8254;SDS011;4167;48.162;11.542;2023-05-07T07:27:48;274.95;;;78.82;;
8254;SDS011;4167;48.162;11.542;2023-05-07T07:30:15;491.90;;;93.15;;
8254;SDS011;4167;48.162;11.542;2023-05-07T07:32:41;269.73;;;80.05;;
8254;SDS011;4167;48.162;11.542;2023-05-07T07:35:08;363.50;;;85.68;;
8254;SDS011;4167;48.162;11.542;2023-05-07T07:37:35;323.42;;;82.28;;
8254;SDS011;4167;48.162;11.542;2023-05-07T07:40:03;323.58;;;83.10;;
8254;SDS011;4167;48.162;11.542;2023-05-07T07:42:30;311.60;;;82.07;;
8254;SDS011;4167;48.162;11.542;2023-05-07T07:44:56;278.98;;;79.80;;
8254;SDS011;4167;48.162;11.542;2023-05-07T07:47:23;240.88;;;78.57;;
8254;SDS011;4167;48.162;11.542;2023-05-07T07:49:49;278.67;;;80.82;;
8254;SDS011;4167;48.162;11.542;2023-05-07T07:52:16;350.63;;;84.63;;
8254;SDS011;4167;48.162;11.542;2023-05-07T07:54:42;374.70;;;87.00;;
8254;SDS011;4167;48.162;11.542;2023-05-07T07:57:10;359.60;;;84.90;;
8254;SDS011;4167;48.162;11.542;2023-05-07T07:59:36;257.48;;;78.57;;
8254;SDS011;4167;48.162;11.542;2023-05-07T08:02:04;237.05;;;78.53;;
8254;SDS011;4167;48.162;11.542;2023-05-07T08:04:31;224.75;;;78.15;;
8254;SDS011;4167;48.162;11.542;2023-05-07T08:06:58;231.43;;;78.05;;
8254;SDS011;4167;48.162;11.542;2023-05-07T08:09:24;272.25;;;80.03;;
8254;SDS011;4167;48.162;11.542;2023-05-07T08:11:51;233.32;;;77.95;;
8254;SDS011;4167;48.162;11.542;2023-05-07T08:14:18;275.92;;;79.95;;
8254;SDS011;4167;48.162;11.542;2023-05-07T08:16:45;414.20;;;87.20;;
8254;SDS011;4167;48.162;11.542;2023-05-07T08:19:11;269.05;;;79.88;;
8254;SDS011;4167;48.162;11.542;2023-05-07T08:21:38;413.10;;;87.50;;
8254;SDS011;4167;48.162;11.542;2023-05-07T08:24:05;337.73;;;83.40;;
8254;SDS011;4167;48.162;11.542;2023-05-07T08:26:32;278.30;;;79.72;;
8254;SDS011;4167;48.162;11.542;2023-05-07T08:29:00;267.65;;;79.70;;
8254;SDS011;4167;48.162;11.542;2023-05-07T08:31:28;273.88;;;79.63;;
8254;SDS011;4167;48.162;11.542;2023-05-07T08:33:55;266.95;;;77.18;;
8254;SDS011;4167;48.162;11.542;2023-05-07T08:36:21;276.67;;;77.43;;
8254;SDS011;4167;48.162;11.542;2023-05-07T08:38:48;307.85;;;80.75;;
8254;SDS011;4167;48.162;11.542;2023-05-07T08:41:14;330.38;;;81.60;;
8254;SDS011;4167;48.162;11.542;2023-05-07T08:43:41;415.17;;;85.82;;
8254;SDS011;4167;48.162;11.542;2023-05-07T08:46:08;323.75;;;78.05;;
8254;SDS011;4167;48.162;11.542;2023-05-07T08:48:37;248.98;;;73.05;;
8254;SDS011;4167;48.162;11.542;2023-05-07T08:51:03;235.20;;;71.88;;
8254;SDS011;4167;48.162;11.542;2023-05-07T08:53:30;324.92;;;78.13;;
8254;SDS011;4167;48.162;11.542;2023-05-07T08:55:56;467.93;;;88.33;;
8254;SDS011;4167;48.162;11.542;2023-05-07T08:58:23;373.33;;;80.53;;
8254;SDS011;4167;48.162;11.542;2023-05-07T09:00:50;387.73;;;80.67;;
8254;SDS011;4167;48.162;11.542;2023-05-07T09:03:17;284.47;;;75.37;;
8254;SDS011;4167;48.162;11.542;2023-05-07T09:05:45;325.03;;;77.60;;
8254;SDS011;4167;48.162;11.542;2023-05-07T09:08:14;286.03;;;74.83;;
8254;SDS011;4167;48.162;11.542;2023-05-07T09:10:41;277.73;;;73.27;;
8254;SDS011;4167;48.162;11.542;2023-05-07T09:13:07;338.37;;;77.87;;
8254;SDS011;4167;48.162;11.542;2023-05-07T09:15:35;270.50;;;72.07;;
8254;SDS011;4167;48.162;11.542;2023-05-07T09:18:02;283.10;;;74.47;;
8254;SDS011;4167;48.162;11.542;2023-05-07T09:20:29;302.73;;;75.23;;
8254;SDS011;4167;48.162;11.542;2023-05-07T09:22:57;409.50;;;82.87;;
8254;SDS011;4167;48.162;11.542;2023-05-07T09:25:27;219.27;;;70.07;;
8254;SDS011;4167;48.162;11.542;2023-05-07T09:27:54;289.37;;;75.47;;
8254;SDS011;4167;48.162;11.542;2023-05-07T09:30:21;395.17;;;82.20;;
8254;SDS011;4167;48.162;11.542;2023-05-07T09:32:47;319.03;;;76.90;;
8254;SDS011;4167;48.162;11.542;2023-05-07T09:35:14;274.63;;;74.33;;
8254;SDS011;4167;48.162;11.542;2023-05-07T09:37:42;306.57;;;76.33;;
8254;SDS011;4167;48.162;11.542;2023-05-07T09:40:10;263.43;;;74.37;;
8254;SDS011;4167;48.162;11.542;2023-05-07T09:42:46;239.10;;;71.53;;
8254;SDS011;4167;48.162;11.542;2023-05-07T09:45:13;356.63;;;79.27;;
8254;SDS011;4167;48.162;11.542;2023-05-07T09:47:39;276.97;;;73.17;;
8254;SDS011;4167;48.162;11.542;2023-05-07T09:50:10;289.10;;;74.10;;
8254;SDS011;4167;48.162;11.542;2023-05-07T09:52:38;313.67;;;75.43;;
8254;SDS011;4167;48.162;11.542;2023-05-07T09:55:06;280.87;;;74.17;;
8254;SDS011;4167;48.162;11.542;2023-05-07T09:57:35;326.57;;;76.23;;
8254;SDS011;4167;48.162;11.542;2023-05-07T10:00:02;269.03;;;73.50;;
8254;SDS011;4167;48.162;11.542;2023-05-07T10:02:30;262.43;;;72.30;;
8254;SDS011;4167;48.162;11.542;2023-05-07T10:04:57;254.43;;;72.07;;
8254;SDS011;4167;48.162;11.542;2023-05-07T10:07:25;455.13;;;84.53;;
8254;SDS011;4167;48.162;11.542;2023-05-07T10:09:51;389.90;;;80.13;;
8254;SDS011;4167;48.162;11.542;2023-05-07T10:12:18;337.87;;;77.03;;
8254;SDS011;4167;48.162;11.542;2023-05-07T10:14:46;381.13;;;79.73;;
8254;SDS011;4167;48.162;11.542;2023-05-07T10:17:14;301.27;;;73.77;;
8254;SDS011;4167;48.162;11.542;2023-05-07T10:19:43;236.33;;;70.17;;
8254;SDS011;4167;48.162;11.542;2023-05-07T10:22:10;306.10;;;74.67;;
8254;SDS011;4167;48.162;11.542;2023-05-07T10:24:37;355.73;;;78.23;;
8254;SDS011;4167;48.162;11.542;2023-05-07T10:27:04;389.10;;;79.37;;
8254;SDS011;4167;48.162;11.542;2023-05-07T10:29:35;236.33;;;70.43;;
8254;SDS011;4167;48.162;11.542;2023-05-07T10:32:10;266.40;;;71.10;;
8254;SDS011;4167;48.162;11.542;2023-05-07T10:34:42;254.97;;;71.40;;
8254;SDS011;4167;48.162;11.542;2023-05-07T10:37:10;342.87;;;76.60;;
8254;SDS011;4167;48.162;11.542;2023-05-07T10:39:37;263.73;;;72.20;;
8254;SDS011;4167;48.162;11.542;2023-05-07T10:42:07;262.53;;;71.73;;
8254;SDS011;4167;48.162;11.542;2023-05-07T10:44:34;224.97;;;68.73;;
8254;SDS011;4167;48.162;11.542;2023-05-07T10:47:06;403.93;;;82.03;;
8254;SDS011;4167;48.162;11.542;2023-05-07T10:49:35;297.27;;;74.03;;
8254;SDS011;4167;48.162;11.542;2023-05-07T10:52:12;311.23;;;75.93;;
8254;SDS011;4167;48.162;11.542;2023-05-07T10:54:40;335.63;;;76.53;;
8254;SDS011;4167;48.162;11.542;2023-05-07T11:00:00;216.83;;;67.83;;
8254;SDS011;4167;48.162;11.542;2023-05-07T11:05:28;290.90;;;73.60;;
8254;SDS011;4167;48.162;11.542;2023-05-07T11:07:55;317.53;;;75.70;;
8254;SDS011;4167;48.162;11.542;2023-05-07T11:10:22;257.87;;;72.27;;
8254;SDS011;4167;48.162;11.542;2023-05-07T11:12:53;330.23;;;77.33;;
8254;SDS011;4167;48.162;11.542;2023-05-07T11:15:33;387.40;;;81.83;;
8254;SDS011;4167;48.162;11.542;2023-05-07T11:18:08;320.57;;;75.93;;
8254;SDS011;4167;48.162;11.542;2023-05-07T11:20:46;355.97;;;78.43;;
8254;SDS011;4167;48.162;11.542;2023-05-07T11:26:42;358.00;;;79.73;;
8254;SDS011;4167;48.162;11.542;2023-05-07T11:29:13;299.07;;;75.37;;
8254;SDS011;4167;48.162;11.542;2023-05-07T11:31:41;294.13;;;79.17;;
8254;SDS011;4167;48.162;11.542;2023-05-07T11:34:07;220.63;;;69.27;;
8254;SDS011;4167;48.162;11.542;2023-05-07T11:39:36;142.37;;;66.00;;
8254;SDS011;4167;48.162;11.542;2023-05-07T11:45:06;216.23;;;76.30;;
8254;SDS011;4167;48.162;11.542;2023-05-07T11:47:45;175.02;;;70.07;;
8254;SDS011;4167;48.162;11.542;2023-05-07T11:50:15;208.60;;;70.93;;
8254;SDS011;4167;48.162;11.542;2023-05-07T11:52:50;236.82;;;74.88;;
8254;SDS011;4167;48.162;11.542;2023-05-07T11:55:19;239.60;;;72.30;;
8254;SDS011;4167;48.162;11.542;2023-05-07T11:57:52;210.13;;;71.00;;
8254;SDS011;4167;48.162;11.542;2023-05-07T12:00:19;362.25;;;79.25;;
8254;SDS011;4167;48.162;11.542;2023-05-07T12:02:53;169.48;;;66.75;;
8254;SDS011;4167;48.162;11.542;2023-05-07T12:05:20;285.90;;;74.93;;
8254;SDS011;4167;48.162;11.542;2023-05-07T12:08:04;207.32;;;70.25;;
8254;SDS011;4167;48.162;11.542;2023-05-07T12:13:39;143.25;;;64.10;;
8254;SDS011;4167;48.162;11.542;2023-05-07T12:16:14;177.20;;;67.75;;
8254;SDS011;4167;48.162;11.542;2023-05-07T12:18:42;349.08;;;77.65;;
8254;SDS011;4167;48.162;11.542;2023-05-07T12:21:16;204.05;;;69.70;;
8254;SDS011;4167;48.162;11.542;2023-05-07T12:24:16;152.98;;;65.25;;
8254;SDS011;4167;48.162;11.542;2023-05-07T12:29:54;200.02;;;68.10;;
8254;SDS011;4167;48.162;11.542;2023-05-07T12:32:21;230.93;;;72.68;;
8254;SDS011;4167;48.162;11.542;2023-05-07T12:35:02;151.77;;;65.32;;
8254;SDS011;4167;48.162;11.542;2023-05-07T12:37:38;249.65;;;73.68;;
8254;SDS011;4167;48.162;11.542;2023-05-07T12:40:22;214.20;;;72.97;;
8254;SDS011;4167;48.162;11.542;2023-05-07T12:42:52;142.80;;;65.30;;
8254;SDS011;4167;48.162;11.542;2023-05-07T12:45:20;233.90;;;75.13;;
8254;SDS011;4167;48.162;11.542;2023-05-07T12:47:47;164.85;;;67.03;;
8254;SDS011;4167;48.162;11.542;2023-05-07T12:50:13;222.77;;;71.95;;
8254;SDS011;4167;48.162;11.542;2023-05-07T12:52:40;194.82;;;70.72;;
8254;SDS011;4167;48.162;11.542;2023-05-07T12:55:08;179.70;;;69.88;;
8254;SDS011;4167;48.162;11.542;2023-05-07T12:57:38;159.30;;;66.15;;
8254;SDS011;4167;48.162;11.542;2023-05-07T13:00:08;217.77;;;72.50;;
8254;SDS011;4167;48.162;11.542;2023-05-07T13:02:37;180.23;;;67.85;;
8254;SDS011;4167;48.162;11.542;2023-05-07T13:05:05;198.13;;;69.03;;
8254;SDS011;4167;48.162;11.542;2023-05-07T13:07:34;194.98;;;68.95;;
8254;SDS011;4167;48.162;11.542;2023-05-07T13:10:01;180.18;;;67.03;;
8254;SDS011;4167;48.162;11.542;2023-05-07T13:12:28;195.45;;;70.03;;
8254;SDS011;4167;48.162;11.542;2023-05-07T13:14:55;224.60;;;71.03;;
8254;SDS011;4167;48.162;11.542;2023-05-07T13:17:23;222.38;;;72.05;;
8254;SDS011;4167;48.162;11.542;2023-05-07T13:19:50;151.98;;;67.13;;
8254;SDS011;4167;48.162;11.542;2023-05-07T13:22:17;190.10;;;70.25;;
8254;SDS011;4167;48.162;11.542;2023-05-07T13:24:44;173.50;;;67.47;;
8254;SDS011;4167;48.162;11.542;2023-05-07T13:27:11;170.70;;;67.35;;
8254;SDS011;4167;48.162;11.542;2023-05-07T13:29:38;208.70;;;74.38;;
8254;SDS011;4167;48.162;11.542;2023-05-07T13:32:05;211.48;;;68.88;;
8254;SDS011;4167;48.162;11.542;2023-05-07T13:34:33;200.40;;;71.32;;
8254;SDS011;4167;48.162;11.542;2023-05-07T13:37:00;244.60;;;70.82;;
8254;SDS011;4167;48.162;11.542;2023-05-07T13:39:26;179.75;;;72.32;;
8254;SDS011;4167;48.162;11.542;2023-05-07T13:41:53;248.90;;;72.22;;
8254;SDS011;4167;48.162;11.542;2023-05-07T13:44:20;197.20;;;71.68;;
8254;SDS011;4167;48.162;11.542;2023-05-07T13:46:47;240.13;;;72.30;;
8254;SDS011;4167;48.162;11.542;2023-05-07T13:49:13;173.02;;;67.50;;
8254;SDS011;4167;48.162;11.542;2023-05-07T13:51:41;243.20;;;71.03;;
8254;SDS011;4167;48.162;11.542;2023-05-07T13:54:08;231.32;;;70.68;;
8254;SDS011;4167;48.162;11.542;2023-05-07T13:56:34;193.77;;;68.82;;
8254;SDS011;4167;48.162;11.542;2023-05-07T13:59:01;176.38;;;67.28;;
8254;SDS011;4167;48.162;11.542;2023-05-07T14:01:28;177.88;;;70.68;;
8254;SDS011;4167;48.162;11.542;2023-05-07T14:03:55;208.23;;;68.38;;
8254;SDS011;4167;48.162;11.542;2023-05-07T14:06:24;155.55;;;66.50;;
8254;SDS011;4167;48.162;11.542;2023-05-07T14:08:52;214.75;;;68.57;;
8254;SDS011;4167;48.162;11.542;2023-05-07T14:11:20;214.40;;;68.60;;
8254;SDS011;4167;48.162;11.542;2023-05-07T14:13:47;169.40;;;67.97;;
8254;SDS011;4167;48.162;11.542;2023-05-07T14:16:14;173.77;;;66.95;;
8254;SDS011;4167;48.162;11.542;2023-05-07T14:18:41;176.80;;;65.28;;
8254;SDS011;4167;48.162;11.542;2023-05-07T14:21:07;248.57;;;72.37;;
8254;SDS011;4167;48.162;11.542;2023-05-07T14:23:37;167.88;;;67.63;;
8254;SDS011;4167;48.162;11.542;2023-05-07T14:26:07;224.55;;;70.75;;
8254;SDS011;4167;48.162;11.542;2023-05-07T14:28:33;153.85;;;66.65;;
8254;SDS011;4167;48.162;11.542;2023-05-07T14:31:04;180.67;;;68.53;;
8254;SDS011;4167;48.162;11.542;2023-05-07T14:33:31;199.82;;;69.38;;
8254;SDS011;4167;48.162;11.542;2023-05-07T14:35:58;207.65;;;68.88;;
8254;SDS011;4167;48.162;11.542;2023-05-07T14:38:24;205.23;;;69.80;;
8254;SDS011;4167;48.162;11.542;2023-05-07T14:40:51;240.77;;;71.67;;
8254;SDS011;4167;48.162;11.542;2023-05-07T14:43:22;215.60;;;70.13;;
8254;SDS011;4167;48.162;11.542;2023-05-07T14:45:48;189.30;;;67.73;;